createdAt,value
2022-11-14T00:02:38.372Z,77.07
2022-11-14T00:05:24.219Z,76.93
2022-11-14T00:08:21.706Z,76.38
2022-11-14T00:11:07.130Z,76.40
2022-11-14T00:13:52.536Z,76.99
2022-11-14T00:16:37.961Z,77.08
2022-11-14T00:19:23.216Z,76.43
2022-11-14T00:22:08.407Z,76.37
2022-11-14T00:24:54.197Z,77.07
2022-11-14T00:27:39.531Z,76.55
2022-11-14T00:30:25.616Z,76.67
2022-11-14T00:33:14.715Z,76.37
2022-11-14T00:36:03.535Z,76.58
2022-11-14T00:38:53.115Z,76.85
2022-11-14T00:41:38.932Z,76.75
2022-11-14T00:44:24.924Z,76.42
2022-11-14T00:47:10.207Z,76.79
2022-11-14T00:49:55.761Z,76.90
2022-11-14T00:52:41.322Z,76.42
2022-11-14T00:55:26.787Z,76.72
2022-11-14T00:58:12.541Z,77.00
2022-11-14T01:00:58.018Z,76.66
2022-11-14T01:03:43.436Z,76.94
2022-11-14T01:06:28.818Z,76.93
2022-11-14T01:09:14.084Z,76.50
2022-11-14T01:12:00.103Z,77.10
2022-11-14T01:14:45.611Z,77.07
2022-11-14T01:17:31.023Z,77.10
2022-11-14T01:20:16.866Z,76.69
2022-11-14T01:23:02.447Z,76.98
2022-11-14T01:25:47.691Z,76.52
2022-11-14T01:28:33.215Z,76.72
2022-11-14T01:31:21.723Z,76.57
2022-11-14T01:34:07.160Z,76.82
2022-11-14T01:37:12.652Z,77.14
2022-11-14T01:40:17.972Z,77.32
2022-11-14T01:43:51.134Z,76.57
2022-11-14T01:47:00.496Z,76.85
2022-11-14T01:50:10.107Z,77.21
2022-11-14T01:53:18.832Z,77.20
2022-11-14T01:56:27.539Z,77.16
2022-11-14T01:59:38.149Z,77.07
2022-11-14T02:02:45.649Z,76.43
2022-11-14T02:05:52.477Z,76.99
2022-11-14T02:08:58.964Z,76.77
2022-11-14T02:12:06.186Z,77.01
2022-11-14T02:15:15.867Z,77.07
2022-11-14T02:18:22.150Z,76.88
2022-11-14T02:21:27.547Z,77.18
2022-11-14T02:24:34.204Z,77.08
2022-11-14T02:27:39.438Z,76.72
2022-11-14T02:30:45.211Z,76.90
2022-11-14T02:33:50.467Z,76.94
2022-11-14T02:36:56.095Z,76.87
2022-11-14T02:40:01.167Z,76.90
2022-11-14T02:43:06.641Z,77.36
2022-11-14T02:46:11.775Z,77.49
2022-11-14T02:49:17.590Z,76.92
2022-11-14T02:52:23.030Z,76.76
2022-11-14T02:55:29.482Z,77.31
2022-11-14T02:58:34.936Z,77.21
2022-11-14T03:01:40.780Z,76.87
2022-11-14T03:04:46.366Z,77.17
2022-11-14T03:07:52.080Z,76.86
2022-11-14T03:10:57.449Z,77.64
2022-11-14T03:14:03.086Z,76.91
2022-11-14T03:17:08.479Z,76.76
2022-11-14T03:20:14.252Z,77.44
2022-11-14T03:23:19.807Z,77.28
2022-11-14T03:26:27.792Z,76.68
2022-11-14T03:29:33.550Z,77.11
2022-11-14T03:32:38.803Z,77.00
2022-11-14T03:35:44.361Z,77.28
2022-11-14T03:38:50.520Z,77.01
2022-11-14T03:41:55.944Z,76.85
2022-11-14T03:45:01.383Z,77.31
2022-11-14T03:48:06.691Z,77.13
2022-11-14T03:51:12.637Z,77.25
2022-11-14T03:54:17.929Z,77.36
2022-11-14T03:57:23.883Z,77.22
2022-11-14T04:00:30.122Z,76.68
2022-11-14T04:03:35.804Z,77.08
2022-11-14T04:06:41.403Z,77.11
2022-11-14T04:09:46.691Z,77.38
2022-11-14T04:12:52.449Z,77.17
2022-11-14T04:15:58.231Z,77.21
2022-11-14T04:19:03.431Z,77.35
2022-11-14T04:22:09.243Z,77.29
2022-11-14T04:25:14.210Z,76.91
2022-11-14T04:28:19.739Z,77.21
2022-11-14T04:31:25.518Z,77.15
2022-11-14T04:34:30.719Z,77.30
2022-11-14T04:37:36.408Z,77.20
2022-11-14T04:40:41.975Z,77.14
2022-11-14T04:43:50.774Z,77.11
2022-11-14T04:46:56.710Z,77.22
2022-11-14T04:50:02.033Z,77.25
2022-11-14T04:53:11.052Z,76.90
2022-11-14T04:56:16.442Z,77.43
2022-11-14T04:59:22.423Z,77.26
2022-11-14T05:02:27.908Z,77.38
2022-11-14T05:05:36.877Z,77.07
2022-11-14T05:08:44.869Z,77.16
2022-11-14T05:11:50.359Z,77.00
2022-11-14T05:14:55.852Z,77.08
2022-11-14T05:18:01.450Z,77.21
2022-11-14T05:21:06.704Z,76.99
2022-11-14T05:24:12.390Z,77.11
2022-11-14T05:27:18.974Z,77.16
2022-11-14T05:30:24.971Z,76.90
2022-11-14T05:33:30.423Z,77.20
2022-11-14T05:36:37.361Z,76.98
2022-11-14T05:39:43.010Z,76.68
2022-11-14T05:42:48.720Z,77.25
2022-11-14T05:45:54.063Z,77.22
2022-11-14T05:48:59.858Z,77.22
2022-11-14T05:52:05.516Z,77.16
2022-11-14T05:55:11.377Z,77.04
2022-11-14T05:58:20.341Z,76.98
2022-11-14T06:01:32.432Z,77.28
2022-11-14T06:04:38.021Z,77.08
2022-11-14T06:07:43.500Z,77.12
2022-11-14T06:10:49.954Z,77.17
2022-11-14T06:13:56.085Z,77.07
2022-11-14T06:17:01.382Z,77.07
2022-11-14T06:20:07.018Z,77.01
2022-11-14T06:23:14.669Z,77.31
2022-11-14T06:26:21.708Z,77.11
2022-11-14T06:29:31.332Z,77.14
2022-11-14T06:32:40.114Z,76.99
2022-11-14T06:35:46.480Z,77.11
2022-11-14T06:38:53.513Z,77.07
2022-11-14T06:41:59.331Z,77.23
2022-11-14T06:45:06.186Z,77.33
2022-11-14T06:48:11.672Z,77.12
2022-11-14T06:51:18.450Z,77.18
2022-11-14T06:54:24.169Z,77.30
2022-11-14T06:57:29.403Z,77.22
2022-11-14T07:00:35.328Z,77.20
2022-11-14T07:03:40.708Z,77.43
2022-11-14T07:06:47.413Z,77.17
2022-11-14T07:09:53.003Z,77.07
2022-11-14T07:12:58.756Z,77.99
2022-11-14T07:16:14.419Z,77.30
2022-11-14T07:19:20.807Z,77.44
2022-11-14T07:22:26.583Z,77.42
2022-11-14T07:25:32.556Z,77.37
2022-11-14T07:28:37.982Z,77.45
2022-11-14T07:31:43.679Z,77.30
2022-11-14T07:34:48.989Z,77.77
2022-11-14T07:37:54.875Z,77.42
2022-11-14T07:41:00.382Z,77.58
2022-11-14T07:44:06.220Z,77.25
2022-11-14T07:47:11.718Z,77.31
2022-11-14T07:50:20.385Z,77.30
2022-11-14T07:53:26.539Z,77.41
2022-11-14T07:56:32.140Z,77.31
2022-11-14T07:59:37.735Z,77.41
2022-11-14T08:02:43.424Z,77.25
2022-11-14T08:05:48.619Z,77.61
2022-11-14T08:08:54.042Z,77.44
2022-11-14T08:12:08.078Z,76.95
2022-11-14T08:15:13.291Z,77.06
2022-11-14T08:18:19.519Z,76.94
2022-11-14T08:21:25.528Z,77.78
2022-11-14T08:24:31.089Z,77.76
2022-11-14T08:27:36.399Z,77.39
2022-11-14T08:30:41.906Z,77.75
2022-11-14T08:33:47.402Z,77.41
2022-11-14T08:36:53.199Z,77.13
2022-11-14T08:39:58.478Z,77.45
2022-11-14T08:43:04.128Z,78.00
2022-11-14T08:45:49.679Z,77.67
2022-11-14T08:48:34.970Z,77.50
2022-11-14T08:51:20.418Z,77.21
2022-11-14T08:54:05.751Z,77.17
2022-11-14T08:57:11.142Z,77.40
2022-11-14T09:00:16.587Z,77.13
2022-11-14T09:03:27.031Z,78.00
2022-11-14T09:06:32.340Z,78.00
2022-11-14T09:09:37.812Z,78.07
2022-11-14T09:13:02.284Z,78.09
2022-11-14T09:16:07.975Z,77.84
2022-11-14T09:19:13.241Z,77.73
2022-11-14T09:22:18.635Z,77.78
2022-11-14T09:25:24.372Z,77.41
2022-11-14T09:28:30.062Z,77.66
2022-11-14T09:31:35.842Z,77.77
2022-11-14T09:34:41.288Z,77.30
2022-11-14T09:37:27.280Z,77.86
2022-11-14T09:40:33.520Z,78.55
2022-11-14T09:43:57.103Z,77.82
2022-11-14T09:47:10.683Z,77.55
2022-11-14T09:50:42.110Z,78.12
2022-11-14T09:53:59.995Z,77.94
2022-11-14T09:57:05.491Z,78.35
2022-11-14T09:59:51.183Z,78.57
2022-11-14T10:02:36.632Z,77.86
2022-11-14T10:06:11.038Z,77.73
2022-11-14T10:09:32.996Z,77.68
2022-11-14T10:12:45.111Z,77.84
2022-11-14T10:16:11.649Z,78.63
2022-11-14T10:19:41.456Z,77.67
2022-11-14T10:23:05.991Z,78.75
2022-11-14T10:26:20.291Z,77.75
2022-11-14T10:29:47.605Z,78.04
2022-11-14T10:33:02.543Z,77.81
2022-11-14T10:36:23.691Z,79.10
2022-11-14T10:39:39.202Z,78.10
2022-11-14T10:42:55.859Z,78.67
2022-11-14T10:46:07.895Z,78.87
2022-11-14T10:49:14.358Z,78.80
2022-11-14T10:52:23.583Z,79.13
2022-11-14T10:56:02.615Z,79.28
2022-11-14T10:59:04.374Z,78.24
2022-11-14T11:02:15.594Z,78.63
2022-11-14T11:05:34.692Z,79.28
2022-11-14T11:08:44.622Z,78.77
2022-11-14T11:11:50.247Z,79.13
2022-11-14T11:14:55.891Z,79.12
2022-11-14T11:18:24.963Z,78.76
2022-11-14T11:21:33.226Z,78.94
2022-11-14T11:24:59.009Z,78.52
2022-11-14T11:28:04.543Z,78.78
2022-11-14T11:31:18.621Z,79.39
2022-11-14T11:34:28.276Z,79.76
2022-11-14T11:37:41.654Z,79.49
2022-11-14T11:40:49.328Z,79.40
2022-11-14T11:44:16.901Z,79.53
2022-11-14T11:47:28.610Z,78.97
2022-11-14T11:50:37.121Z,79.08
2022-11-14T11:53:49.642Z,79.15
2022-11-14T11:56:57.532Z,78.65
2022-11-14T12:00:08.746Z,79.89
2022-11-14T12:03:20.278Z,79.71
2022-11-14T12:06:28.849Z,78.86
2022-11-14T12:13:31.564Z,78.73
2022-11-14T12:16:55.478Z,79.88
2022-11-14T12:20:34.831Z,79.47
2022-11-14T12:24:11.716Z,78.92
2022-11-14T12:27:41.395Z,80.11
2022-11-14T12:30:47.955Z,79.45
2022-11-14T12:33:58.932Z,80.28
2022-11-14T12:37:05.484Z,80.20
2022-11-14T12:40:36.124Z,80.33
2022-11-14T12:43:53.489Z,78.82
2022-11-14T12:47:26.798Z,79.97
2022-11-14T12:50:51.641Z,80.32
2022-11-14T12:53:59.234Z,79.71
2022-11-14T12:57:19.677Z,80.41
2022-11-14T13:00:29.028Z,80.08
2022-11-14T13:04:04.531Z,79.84
2022-11-14T13:07:18.625Z,78.95
2022-11-14T13:10:34.805Z,80.31
2022-11-14T13:13:42.213Z,79.57
2022-11-14T13:16:51.167Z,80.46
2022-11-14T13:20:04.581Z,79.99
2022-11-14T13:23:10.403Z,80.00
2022-11-14T13:26:30.743Z,80.40
2022-11-14T13:29:55.017Z,80.44
2022-11-14T13:33:03.184Z,80.48
2022-11-14T13:36:15.880Z,79.66
2022-11-14T13:39:51.378Z,80.43
2022-11-14T13:43:22.085Z,79.71
2022-11-14T13:46:29.995Z,80.51
2022-11-14T13:50:16.685Z,80.20
2022-11-14T13:53:31.267Z,80.22
2022-11-14T13:56:54.075Z,79.92
2022-11-14T14:00:18.465Z,80.10
2022-11-14T14:03:39.040Z,80.13
2022-11-14T14:06:50.233Z,80.03
2022-11-14T14:10:39.490Z,80.15
2022-11-14T14:14:16.655Z,79.46
2022-11-14T14:17:42.443Z,80.10
2022-11-14T14:21:07.896Z,80.22
2022-11-14T14:24:25.430Z,79.83
2022-11-14T14:27:42.607Z,80.03
2022-11-14T14:30:48.472Z,79.47
2022-11-14T14:34:07.931Z,79.77
2022-11-14T14:37:17.354Z,79.21
2022-11-14T14:40:26.127Z,79.80
2022-11-14T14:43:52.206Z,79.36
2022-11-14T14:46:57.587Z,79.66
2022-11-14T14:50:03.741Z,80.57
2022-11-14T14:53:19.981Z,79.76
2022-11-14T14:56:37.325Z,80.24
2022-11-14T14:59:45.238Z,79.83
2022-11-14T15:02:51.142Z,80.63
2022-11-14T15:05:56.483Z,80.62
2022-11-14T15:09:02.228Z,79.29
2022-11-14T15:12:10.665Z,80.17
2022-11-14T15:15:18.004Z,80.33
2022-11-14T15:18:27.285Z,80.59
2022-11-14T15:21:42.147Z,79.99
2022-11-14T15:24:47.469Z,80.09
2022-11-14T15:27:52.984Z,79.21
2022-11-14T15:30:58.435Z,79.16
2022-11-14T15:34:03.744Z,80.39
2022-11-14T15:37:30.984Z,80.02
2022-11-14T15:40:40.470Z,80.34
2022-11-14T15:44:04.004Z,79.46
2022-11-14T15:47:10.131Z,79.86
2022-11-14T15:50:38.483Z,80.16
2022-11-14T15:53:49.068Z,80.57
2022-11-14T15:56:54.873Z,79.88
2022-11-14T16:00:00.164Z,79.41
2022-11-14T16:03:09.888Z,79.17
2022-11-14T16:06:15.846Z,80.12
2022-11-14T16:09:20.784Z,79.41
2022-11-14T16:12:26.778Z,80.72
2022-11-14T16:15:32.439Z,80.05
2022-11-14T16:18:37.736Z,80.41
2022-11-14T16:21:43.330Z,80.60
2022-11-14T16:24:50.260Z,79.43
2022-11-14T16:27:56.176Z,80.22
2022-11-14T16:31:01.707Z,79.66
2022-11-14T16:34:07.579Z,80.35
2022-11-14T16:37:18.259Z,80.60
2022-11-14T16:40:24.116Z,79.83
2022-11-14T16:43:33.406Z,79.73
2022-11-14T16:46:39.032Z,80.44
2022-11-14T16:49:33.196Z,80.07
2022-11-14T16:52:19.930Z,80.14
2022-11-14T16:55:06.794Z,79.99
2022-11-14T16:57:52.142Z,80.40
2022-11-14T17:00:37.465Z,80.12
2022-11-14T17:03:23.265Z,79.55
2022-11-14T17:06:10.545Z,79.71
2022-11-14T17:08:57.535Z,80.63
2022-11-14T17:11:44.654Z,79.70
2022-11-14T17:14:30.284Z,80.94
2022-11-14T17:17:16.130Z,79.46
2022-11-14T17:20:01.716Z,80.27
2022-11-14T17:22:47.343Z,79.57
2022-11-14T17:25:32.828Z,80.79
2022-11-14T17:28:18.327Z,81.21
2022-11-14T17:31:08.321Z,80.48
2022-11-14T17:33:56.002Z,79.68
2022-11-14T17:36:41.747Z,80.19
2022-11-14T17:39:30.148Z,80.95
2022-11-14T17:42:15.994Z,80.03
2022-11-14T17:45:21.104Z,80.44
2022-11-14T17:48:27.253Z,80.24
2022-11-14T17:51:34.727Z,80.34
2022-11-14T17:54:40.245Z,79.75
2022-11-14T17:57:45.588Z,81.23
2022-11-14T18:00:51.319Z,80.37
2022-11-14T18:03:59.298Z,80.48
2022-11-14T18:07:07.264Z,80.33
2022-11-14T18:10:12.944Z,80.25
2022-11-14T18:13:18.403Z,80.78
2022-11-14T18:16:50.390Z,81.35
2022-11-14T18:19:55.559Z,79.91
2022-11-14T18:23:01.021Z,80.31
2022-11-14T18:26:06.660Z,80.88
2022-11-14T18:29:04.763Z,80.11
2022-11-14T18:32:09.898Z,80.76
2022-11-14T18:35:15.131Z,81.44
2022-11-14T18:38:20.930Z,81.45
2022-11-14T18:41:35.399Z,81.21
2022-11-14T18:44:40.958Z,80.05
2022-11-14T18:47:46.287Z,81.23
2022-11-14T18:50:51.943Z,79.97
2022-11-14T18:53:57.404Z,81.53
2022-11-14T18:57:02.845Z,81.29
2022-11-14T19:00:08.270Z,80.89
2022-11-14T19:03:13.435Z,80.08
2022-11-14T19:06:22.448Z,81.22
2022-11-14T19:09:30.429Z,80.49
2022-11-14T19:12:38.161Z,80.54
2022-11-14T19:15:43.819Z,79.94
2022-11-14T19:18:49.939Z,80.52
2022-11-14T19:21:55.875Z,80.04
2022-11-14T19:25:07.027Z,80.90
2022-11-14T19:28:12.725Z,80.59
2022-11-14T19:31:25.354Z,81.21
2022-11-14T19:34:30.798Z,81.60
2022-11-14T19:37:36.037Z,81.43
2022-11-14T19:40:41.794Z,80.75
2022-11-14T19:43:47.044Z,80.99
2022-11-14T19:46:53.015Z,81.29
2022-11-14T19:49:58.556Z,80.42
2022-11-14T19:52:43.935Z,81.45
2022-11-14T19:55:30.843Z,80.00
2022-11-14T19:58:16.721Z,80.28
2022-11-14T20:01:09.236Z,80.29
2022-11-14T20:03:57.458Z,80.29
2022-11-14T20:06:43.185Z,80.04
2022-11-14T20:09:28.843Z,81.00
2022-11-14T20:12:14.266Z,81.25
2022-11-14T20:14:59.582Z,81.28
2022-11-14T20:17:45.276Z,79.99
2022-11-14T20:20:30.648Z,81.29
2022-11-14T20:23:15.959Z,80.52
2022-11-14T20:26:01.338Z,80.83
2022-11-14T20:28:52.008Z,80.12
2022-11-14T20:31:38.102Z,80.37
2022-11-14T20:34:43.887Z,81.18
2022-11-14T20:37:49.118Z,80.53
2022-11-14T20:40:54.774Z,80.92
2022-11-14T20:44:00.614Z,80.03
2022-11-14T20:47:10.780Z,80.63
2022-11-14T20:49:56.891Z,80.15
2022-11-14T20:52:42.222Z,80.62
2022-11-14T20:55:27.409Z,80.22
2022-11-14T20:58:12.801Z,81.01
2022-11-14T21:00:58.123Z,80.65
2022-11-14T21:03:43.755Z,80.99
2022-11-14T21:06:29.262Z,80.27
2022-11-14T21:09:14.815Z,80.11
2022-11-14T21:12:00.096Z,80.14
2022-11-14T21:14:45.700Z,81.02
2022-11-14T21:17:31.738Z,80.97
2022-11-14T21:20:17.442Z,80.03
2022-11-14T21:23:02.814Z,80.80
2022-11-14T21:25:48.303Z,80.98
2022-11-14T21:28:35.425Z,79.90
2022-11-14T21:31:34.056Z,79.97
2022-11-14T21:34:19.763Z,80.97
2022-11-14T21:37:04.987Z,81.13
2022-11-14T21:39:50.607Z,81.15
2022-11-14T21:42:36.091Z,81.06
2022-11-14T21:45:21.378Z,81.02
2022-11-14T21:48:06.771Z,80.02
2022-11-14T21:50:52.430Z,80.06
2022-11-14T21:53:38.975Z,80.93
2022-11-14T21:56:32.348Z,80.23
2022-11-14T21:59:21.554Z,80.47
2022-11-14T22:02:29.163Z,79.99
2022-11-14T22:05:14.383Z,79.94
2022-11-14T22:08:00.032Z,80.15
2022-11-14T22:10:45.372Z,80.32
2022-11-14T22:13:31.747Z,80.96
2022-11-14T22:16:19.552Z,80.86
2022-11-14T22:19:05.874Z,81.02
2022-11-14T22:21:51.491Z,80.61
2022-11-14T22:24:36.951Z,80.08
2022-11-14T22:27:22.238Z,80.26
2022-11-14T22:30:28.132Z,80.63
2022-11-14T22:33:33.787Z,81.02
2022-11-14T22:36:44.196Z,80.36
2022-11-14T22:39:50.711Z,81.06
2022-11-14T22:42:56.208Z,79.91
2022-11-14T22:46:01.514Z,80.77
2022-11-14T22:49:09.000Z,79.89
2022-11-14T22:52:14.526Z,79.97
2022-11-14T22:55:20.018Z,80.01
2022-11-14T22:58:25.451Z,80.62
2022-11-14T23:01:31.322Z,80.86
2022-11-14T23:04:36.892Z,80.53
2022-11-14T23:07:42.435Z,80.29
2022-11-14T23:10:47.928Z,80.30
2022-11-14T23:14:09.556Z,80.16
2022-11-14T23:17:14.834Z,80.75
2022-11-14T23:20:20.060Z,81.12
2022-11-14T23:23:25.635Z,80.63
2022-11-14T23:26:33.959Z,79.89
2022-11-14T23:29:39.484Z,80.26
2022-11-14T23:32:47.290Z,80.97
2022-11-14T23:35:52.452Z,79.90
2022-11-14T23:38:58.183Z,80.67
2022-11-14T23:42:03.421Z,80.18
2022-11-14T23:45:09.158Z,80.16
2022-11-14T23:48:14.495Z,80.03
2022-11-14T23:51:20.033Z,79.99
2022-11-14T23:54:25.099Z,80.47
2022-11-14T23:57:30.649Z,80.20
